sensor_id;sensor_type;location;lat;lon;timestamp;pressure;altitude;pressure_sealevel;temperature;humidity
30724;BME280;17473;52.286;20.930;2023-04-07T00:01:14;100203.19;;;4.71;100.00
30724;BME280;17473;52.286;20.930;2023-04-07T00:03:41;100200.91;;;4.77;100.00
30724;BME280;17473;52.286;20.930;2023-04-07T00:06:09;100198.41;;;4.79;100.00
30724;BME280;17473;52.286;20.930;2023-04-07T00:08:37;100189.13;;;4.85;100.00
30724;BME280;17473;52.286;20.930;2023-04-07T00:11:04;100201.09;;;4.80;100.00
30724;BME280;17473;52.286;20.930;2023-04-07T00:13:31;100183.34;;;4.75;100.00
30724;BME280;17473;52.286;20.930;2023-04-07T00:15:58;100195.44;;;4.89;100.00
30724;BME280;17473;52.286;20.930;2023-04-07T00:18:25;100194.53;;;4.89;100.00
30724;BME280;17473;52.286;20.930;2023-04-07T00:20:53;100187.69;;;4.91;100.00
30724;BME280;17473;52.286;20.930;2023-04-07T00:23:19;100183.59;;;4.79;100.00
30724;BME280;17473;52.286;20.930;2023-04-07T00:25:50;100185.47;;;4.82;100.00
30724;BME280;17473;52.286;20.930;2023-04-07T00:28:17;100190.88;;;4.85;100.00
30724;BME280;17473;52.286;20.930;2023-04-07T00:30:44;100176.06;;;4.85;100.00
30724;BME280;17473;52.286;20.930;2023-04-07T00:33:11;100185.31;;;4.95;100.00
30724;BME280;17473;52.286;20.930;2023-04-07T00:35:38;100177.13;;;4.89;100.00
30724;BME280;17473;52.286;20.930;2023-04-07T00:38:05;100181.06;;;4.97;100.00
30724;BME280;17473;52.286;20.930;2023-04-07T00:40:32;100176.22;;;5.05;100.00
30724;BME280;17473;52.286;20.930;2023-04-07T00:42:59;100178.91;;;5.07;100.00
30724;BME280;17473;52.286;20.930;2023-04-07T00:45:26;100183.25;;;5.06;100.00
30724;BME280;17473;52.286;20.930;2023-04-07T00:47:55;100175.34;;;4.88;100.00
30724;BME280;17473;52.286;20.930;2023-04-07T00:50:22;100178.66;;;5.02;100.00
30724;BME280;17473;52.286;20.930;2023-04-07T00:52:50;100170.75;;;5.00;100.00
30724;BME280;17473;52.286;20.930;2023-04-07T00:55:17;100175.06;;;5.16;100.00
30724;BME280;17473;52.286;20.930;2023-04-07T00:57:44;100174.16;;;5.16;100.00
30724;BME280;17473;52.286;20.930;2023-04-07T01:00:12;100168.03;;;5.15;100.00
30724;BME280;17473;52.286;20.930;2023-04-07T01:02:51;100176.88;;;5.17;100.00
30724;BME280;17473;52.286;20.930;2023-04-07T01:06:00;100172.38;;;5.15;100.00
30724;BME280;17473;52.286;20.930;2023-04-07T01:08:53;100170.72;;;5.17;100.00
30724;BME280;17473;52.286;20.930;2023-04-07T01:11:42;100165.72;;;5.22;100.00
30724;BME280;17473;52.286;20.930;2023-04-07T01:14:12;100158.44;;;5.16;100.00
30724;BME280;17473;52.286;20.930;2023-04-07T01:16:46;100166.94;;;5.28;100.00
30724;BME280;17473;52.286;20.930;2023-04-07T01:22:00;100160.19;;;5.15;100.00
30724;BME280;17473;52.286;20.930;2023-04-07T01:30:19;100154.84;;;5.30;100.00
30724;BME280;17473;52.286;20.930;2023-04-07T01:32:50;100158.75;;;5.39;100.00
30724;BME280;17473;52.286;20.930;2023-04-07T01:35:19;100167.13;;;5.49;100.00
30724;BME280;17473;52.286;20.930;2023-04-07T01:37:48;100155.59;;;5.28;100.00
30724;BME280;17473;52.286;20.930;2023-04-07T01:40:16;100160.44;;;5.38;100.00
30724;BME280;17473;52.286;20.930;2023-04-07T01:42:45;100151.06;;;5.42;100.00
30724;BME280;17473;52.286;20.930;2023-04-07T01:45:15;100147.28;;;5.37;100.00
30724;BME280;17473;52.286;20.930;2023-04-07T01:47:43;100145.25;;;5.31;100.00
30724;BME280;17473;52.286;20.930;2023-04-07T01:50:11;100148.03;;;5.34;100.00
30724;BME280;17473;52.286;20.930;2023-04-07T01:52:39;100143.44;;;5.30;100.00
30724;BME280;17473;52.286;20.930;2023-04-07T01:55:07;100157.69;;;5.35;100.00
30724;BME280;17473;52.286;20.930;2023-04-07T01:57:35;100151.28;;;5.46;100.00
30724;BME280;17473;52.286;20.930;2023-04-07T02:00:03;100152.69;;;5.40;100.00
30724;BME280;17473;52.286;20.930;2023-04-07T02:02:36;100146.94;;;5.47;100.00
30724;BME280;17473;52.286;20.930;2023-04-07T02:05:11;100156.59;;;5.48;100.00
30724;BME280;17473;52.286;20.930;2023-04-07T02:07:52;100149.72;;;5.50;100.00
30724;BME280;17473;52.286;20.930;2023-04-07T02:10:23;100154.03;;;5.49;100.00
30724;BME280;17473;52.286;20.930;2023-04-07T02:12:51;100146.28;;;5.51;100.00
30724;BME280;17473;52.286;20.930;2023-04-07T02:15:21;100153.63;;;5.58;100.00
30724;BME280;17473;52.286;20.930;2023-04-07T02:17:53;100149.44;;;5.62;100.00
30724;BME280;17473;52.286;20.930;2023-04-07T02:20:21;100151.13;;;5.61;100.00
30724;BME280;17473;52.286;20.930;2023-04-07T02:22:49;100154.78;;;5.47;100.00
30724;BME280;17473;52.286;20.930;2023-04-07T02:25:30;100144.47;;;5.50;100.00
30724;BME280;17473;52.286;20.930;2023-04-07T02:27:59;100155.44;;;5.59;100.00
30724;BME280;17473;52.286;20.930;2023-04-07T02:30:27;100160.38;;;5.71;100.00
30724;BME280;17473;52.286;20.930;2023-04-07T02:32:55;100145.00;;;5.61;100.00
30724;BME280;17473;52.286;20.930;2023-04-07T02:35:22;100138.50;;;5.71;100.00
30724;BME280;17473;52.286;20.930;2023-04-07T02:37:49;100151.25;;;5.63;100.00
30724;BME280;17473;52.286;20.930;2023-04-07T02:40:17;100147.56;;;5.77;100.00
30724;BME280;17473;52.286;20.930;2023-04-07T02:42:45;100141.88;;;5.68;100.00
30724;BME280;17473;52.286;20.930;2023-04-07T02:45:12;100151.53;;;5.69;100.00
30724;BME280;17473;52.286;20.930;2023-04-07T02:47:40;100149.53;;;5.82;100.00
30724;BME280;17473;52.286;20.930;2023-04-07T02:50:07;100143.16;;;5.76;100.00
30724;BME280;17473;52.286;20.930;2023-04-07T02:52:34;100146.75;;;5.78;100.00
30724;BME280;17473;52.286;20.930;2023-04-07T02:55:02;100152.88;;;5.79;100.00
30724;BME280;17473;52.286;20.930;2023-04-07T02:57:29;100143.47;;;5.83;100.00
30724;BME280;17473;52.286;20.930;2023-04-07T02:59:56;100150.41;;;5.82;100.00
30724;BME280;17473;52.286;20.930;2023-04-07T03:02:24;100150.19;;;5.77;100.00
30724;BME280;17473;52.286;20.930;2023-04-07T03:04:52;100152.38;;;5.86;100.00
30724;BME280;17473;52.286;20.930;2023-04-07T03:07:19;100150.81;;;5.90;100.00
30724;BME280;17473;52.286;20.930;2023-04-07T03:09:46;100146.00;;;5.81;100.00
30724;BME280;17473;52.286;20.930;2023-04-07T03:12:13;100161.41;;;5.93;100.00
30724;BME280;17473;52.286;20.930;2023-04-07T03:14:40;100151.84;;;5.93;100.00
30724;BME280;17473;52.286;20.930;2023-04-07T03:17:07;100153.66;;;5.94;100.00
30724;BME280;17473;52.286;20.930;2023-04-07T03:19:34;100147.59;;;5.95;100.00
30724;BME280;17473;52.286;20.930;2023-04-07T03:22:01;100155.72;;;6.00;100.00
30724;BME280;17473;52.286;20.930;2023-04-07T03:24:28;100155.00;;;6.04;100.00
30724;BME280;17473;52.286;20.930;2023-04-07T03:26:56;100159.03;;;5.98;100.00
30724;BME280;17473;52.286;20.930;2023-04-07T03:29:23;100146.72;;;5.96;100.00
30724;BME280;17473;52.286;20.930;2023-04-07T03:31:50;100148.19;;;6.08;100.00
30724;BME280;17473;52.286;20.930;2023-04-07T03:34:17;100152.94;;;5.99;100.00
30724;BME280;17473;52.286;20.930;2023-04-07T03:36:44;100158.63;;;6.06;100.00
30724;BME280;17473;52.286;20.930;2023-04-07T03:39:11;100149.00;;;6.07;100.00
30724;BME280;17473;52.286;20.930;2023-04-07T03:41:38;100151.34;;;6.01;100.00
30724;BME280;17473;52.286;20.930;2023-04-07T03:44:06;100153.59;;;6.11;100.00
30724;BME280;17473;52.286;20.930;2023-04-07T03:46:33;100137.66;;;6.06;100.00
30724;BME280;17473;52.286;20.930;2023-04-07T03:49:00;100158.56;;;6.05;100.00
30724;BME280;17473;52.286;20.930;2023-04-07T03:51:27;100158.56;;;6.05;100.00
30724;BME280;17473;52.286;20.930;2023-04-07T03:53:54;100154.03;;;6.02;100.00
30724;BME280;17473;52.286;20.930;2023-04-07T03:56:21;100156.81;;;6.05;100.00
30724;BME280;17473;52.286;20.930;2023-04-07T03:58:48;100160.25;;;6.04;100.00
30724;BME280;17473;52.286;20.930;2023-04-07T04:01:16;100141.47;;;6.13;100.00
30724;BME280;17473;52.286;20.930;2023-04-07T04:03:43;100145.78;;;6.13;100.00
30724;BME280;17473;52.286;20.930;2023-04-07T04:06:10;100154.47;;;6.11;100.00
30724;BME280;17473;52.286;20.930;2023-04-07T04:08:37;100153.06;;;6.18;100.00
30724;BME280;17473;52.286;20.930;2023-04-07T04:11:04;100159.41;;;6.23;100.00
30724;BME280;17473;52.286;20.930;2023-04-07T04:13:31;100151.41;;;6.20;100.00
30724;BME280;17473;52.286;20.930;2023-04-07T04:15:58;100158.13;;;6.33;100.00
30724;BME280;17473;52.286;20.930;2023-04-07T04:18:25;100156.19;;;6.29;100.00
30724;BME280;17473;52.286;20.930;2023-04-07T04:20:52;100162.03;;;6.23;100.00
30724;BME280;17473;52.286;20.930;2023-04-07T04:23:20;100167.75;;;6.15;100.00
30724;BME280;17473;52.286;20.930;2023-04-07T04:25:47;100159.28;;;6.20;100.00
30724;BME280;17473;52.286;20.930;2023-04-07T04:28:13;100162.19;;;6.26;100.00
30724;BME280;17473;52.286;20.930;2023-04-07T04:30:41;100162.47;;;6.33;100.00
30724;BME280;17473;52.286;20.930;2023-04-07T04:33:08;100168.91;;;6.39;100.00
30724;BME280;17473;52.286;20.930;2023-04-07T04:35:35;100177.22;;;6.49;100.00
30724;BME280;17473;52.286;20.930;2023-04-07T04:38:02;100182.94;;;6.40;100.00
30724;BME280;17473;52.286;20.930;2023-04-07T04:40:29;100171.69;;;6.42;100.00
30724;BME280;17473;52.286;20.930;2023-04-07T04:42:56;100168.53;;;6.50;100.00
30724;BME280;17473;52.286;20.930;2023-04-07T04:45:23;100176.66;;;6.56;100.00
30724;BME280;17473;52.286;20.930;2023-04-07T04:47:50;100177.97;;;6.46;100.00
30724;BME280;17473;52.286;20.930;2023-04-07T04:50:17;100179.28;;;6.56;100.00
30724;BME280;17473;52.286;20.930;2023-04-07T04:52:44;100172.34;;;6.56;100.00
30724;BME280;17473;52.286;20.930;2023-04-07T04:55:11;100172.66;;;6.45;100.00
30724;BME280;17473;52.286;20.930;2023-04-07T04:57:40;100176.13;;;6.44;100.00
30724;BME280;17473;52.286;20.930;2023-04-07T05:00:08;100170.88;;;6.44;100.00
30724;BME280;17473;52.286;20.930;2023-04-07T05:02:38;100177.59;;;6.38;100.00
30724;BME280;17473;52.286;20.930;2023-04-07T05:05:06;100161.41;;;6.47;100.00
30724;BME280;17473;52.286;20.930;2023-04-07T05:07:33;100176.16;;;6.45;100.00
30724;BME280;17473;52.286;20.930;2023-04-07T05:10:00;100177.69;;;6.60;100.00
30724;BME280;17473;52.286;20.930;2023-04-07T05:12:27;100173.66;;;6.66;100.00
30724;BME280;17473;52.286;20.930;2023-04-07T05:14:54;100165.66;;;6.63;100.00
30724;BME280;17473;52.286;20.930;2023-04-07T05:17:22;100179.22;;;6.54;100.00
30724;BME280;17473;52.286;20.930;2023-04-07T05:19:49;100179.84;;;6.49;100.00
30724;BME280;17473;52.286;20.930;2023-04-07T05:22:16;100179.81;;;6.67;100.00
30724;BME280;17473;52.286;20.930;2023-04-07T05:24:43;100173.53;;;6.63;100.00
30724;BME280;17473;52.286;20.930;2023-04-07T05:27:10;100175.44;;;6.67;100.00
30724;BME280;17473;52.286;20.930;2023-04-07T05:29:37;100178.44;;;6.75;100.00
30724;BME280;17473;52.286;20.930;2023-04-07T05:32:05;100176.13;;;6.83;100.00
30724;BME280;17473;52.286;20.930;2023-04-07T05:34:32;100181.88;;;6.74;100.00
30724;BME280;17473;52.286;20.930;2023-04-07T05:36:59;100175.03;;;6.78;100.00
30724;BME280;17473;52.286;20.930;2023-04-07T05:39:26;100175.50;;;6.69;100.00
30724;BME280;17473;52.286;20.930;2023-04-07T05:41:53;100181.88;;;6.74;100.00
30724;BME280;17473;52.286;20.930;2023-04-07T05:44:20;100180.63;;;6.66;100.00
30724;BME280;17473;52.286;20.930;2023-04-07T05:46:47;100175.63;;;6.90;100.00
30724;BME280;17473;52.286;20.930;2023-04-07T05:49:14;100177.13;;;6.85;100.00
30724;BME280;17473;52.286;20.930;2023-04-07T05:51:46;100174.28;;;6.80;100.00
30724;BME280;17473;52.286;20.930;2023-04-07T05:54:15;100177.38;;;6.91;100.00
30724;BME280;17473;52.286;20.930;2023-04-07T05:56:42;100177.31;;;7.09;100.00
30724;BME280;17473;52.286;20.930;2023-04-07T05:59:09;100183.00;;;7.18;100.00
30724;BME280;17473;52.286;20.930;2023-04-07T06:01:37;100176.09;;;7.01;100.00
30724;BME280;17473;52.286;20.930;2023-04-07T06:04:04;100175.53;;;7.08;100.00
30724;BME280;17473;52.286;20.930;2023-04-07T06:06:32;100186.38;;;7.16;100.00
30724;BME280;17473;52.286;20.930;2023-04-07T06:08:59;100180.84;;;7.10;100.00
30724;BME280;17473;52.286;20.930;2023-04-07T06:11:26;100175.88;;;7.16;100.00
30724;BME280;17473;52.286;20.930;2023-04-07T06:13:53;100181.59;;;7.27;100.00
30724;BME280;17473;52.286;20.930;2023-04-07T06:16:20;100178.06;;;7.26;100.00
30724;BME280;17473;52.286;20.930;2023-04-07T06:18:47;100174.53;;;7.26;100.00
30724;BME280;17473;52.286;20.930;2023-04-07T06:21:14;100173.78;;;7.28;100.00
30724;BME280;17473;52.286;20.930;2023-04-07T06:23:41;100177.53;;;7.14;100.00
30724;BME280;17473;52.286;20.930;2023-04-07T06:26:12;100177.56;;;7.35;100.00
30724;BME280;17473;52.286;20.930;2023-04-07T06:28:39;100177.72;;;7.38;100.00
30724;BME280;17473;52.286;20.930;2023-04-07T06:31:07;100179.00;;;7.48;100.00
30724;BME280;17473;52.286;20.930;2023-04-07T06:33:34;100177.41;;;7.51;100.00
30724;BME280;17473;52.286;20.930;2023-04-07T06:36:02;100171.31;;;7.52;100.00
30724;BME280;17473;52.286;20.930;2023-04-07T06:38:29;100174.91;;;7.76;100.00
30724;BME280;17473;52.286;20.930;2023-04-07T06:40:56;100163.13;;;7.66;100.00
30724;BME280;17473;52.286;20.930;2023-04-07T06:43:23;100170.03;;;7.85;100.00
30724;BME280;17473;52.286;20.930;2023-04-07T06:45:50;100167.88;;;7.75;100.00
30724;BME280;17473;52.286;20.930;2023-04-07T06:48:17;100169.78;;;8.00;100.00
30724;BME280;17473;52.286;20.930;2023-04-07T06:50:50;100170.66;;;8.01;100.00
30724;BME280;17473;52.286;20.930;2023-04-07T06:53:17;100171.75;;;8.06;100.00
30724;BME280;17473;52.286;20.930;2023-04-07T06:55:44;100160.84;;;8.18;100.00
30724;BME280;17473;52.286;20.930;2023-04-07T06:58:11;100173.56;;;8.29;100.00
30724;BME280;17473;52.286;20.930;2023-04-07T07:00:38;100172.56;;;8.26;100.00
30724;BME280;17473;52.286;20.930;2023-04-07T07:03:05;100170.06;;;8.29;100.00
30724;BME280;17473;52.286;20.930;2023-04-07T07:05:33;100180.59;;;8.52;100.00
30724;BME280;17473;52.286;20.930;2023-04-07T07:08:00;100172.59;;;8.49;100.00
30724;BME280;17473;52.286;20.930;2023-04-07T07:10:27;100174.22;;;8.24;100.00
30724;BME280;17473;52.286;20.930;2023-04-07T07:12:54;100175.06;;;8.23;100.00
30724;BME280;17473;52.286;20.930;2023-04-07T07:15:21;100176.13;;;8.05;100.00
30724;BME280;17473;52.286;20.930;2023-04-07T07:17:48;100169.88;;;8.03;100.00
30724;BME280;17473;52.286;20.930;2023-04-07T07:20:15;100170.38;;;8.15;100.00
30724;BME280;17473;52.286;20.930;2023-04-07T07:22:42;100168.69;;;8.39;100.00
30724;BME280;17473;52.286;20.930;2023-04-07T07:25:09;100160.69;;;8.58;100.00
30724;BME280;17473;52.286;20.930;2023-04-07T07:27:36;100178.19;;;8.58;100.00
30724;BME280;17473;52.286;20.930;2023-04-07T07:30:04;100182.53;;;8.56;100.00
30724;BME280;17473;52.286;20.930;2023-04-07T07:32:31;100183.19;;;8.50;100.00
30724;BME280;17473;52.286;20.930;2023-04-07T07:34:58;100183.56;;;8.84;100.00
30724;BME280;17473;52.286;20.930;2023-04-07T07:37:25;100185.84;;;8.97;100.00
30724;BME280;17473;52.286;20.930;2023-04-07T07:39:53;100190.78;;;9.12;100.00
30724;BME280;17473;52.286;20.930;2023-04-07T07:42:22;100184.88;;;8.95;100.00
30724;BME280;17473;52.286;20.930;2023-04-07T07:44:49;100192.53;;;8.89;100.00
30724;BME280;17473;52.286;20.930;2023-04-07T07:47:16;100191.25;;;8.77;100.00
30724;BME280;17473;52.286;20.930;2023-04-07T07:49:43;100194.44;;;8.69;100.00
30724;BME280;17473;52.286;20.930;2023-04-07T07:52:11;100196.50;;;9.00;100.00
30724;BME280;17473;52.286;20.930;2023-04-07T07:54:38;100193.25;;;8.85;100.00
30724;BME280;17473;52.286;20.930;2023-04-07T07:57:05;100193.16;;;8.82;100.00
30724;BME280;17473;52.286;20.930;2023-04-07T07:59:32;100198.84;;;8.70;100.00
30724;BME280;17473;52.286;20.930;2023-04-07T08:01:59;100198.53;;;8.85;100.00
30724;BME280;17473;52.286;20.930;2023-04-07T08:04:26;100203.38;;;8.74;100.00
30724;BME280;17473;52.286;20.930;2023-04-07T08:06:53;100199.25;;;8.81;100.00
30724;BME280;17473;52.286;20.930;2023-04-07T08:09:21;100197.69;;;8.86;100.00
30724;BME280;17473;52.286;20.930;2023-04-07T08:11:48;100205.13;;;8.73;100.00
30724;BME280;17473;52.286;20.930;2023-04-07T08:14:17;100199.97;;;8.76;100.00
30724;BME280;17473;52.286;20.930;2023-04-07T08:16:44;100204.56;;;8.82;100.00
30724;BME280;17473;52.286;20.930;2023-04-07T08:19:12;100208.75;;;9.00;100.00
30724;BME280;17473;52.286;20.930;2023-04-07T08:21:39;100201.94;;;8.82;100.00
30724;BME280;17473;52.286;20.930;2023-04-07T08:24:08;100189.88;;;8.87;100.00
30724;BME280;17473;52.286;20.930;2023-04-07T08:26:35;100193.75;;;9.21;100.00
30724;BME280;17473;52.286;20.930;2023-04-07T08:29:02;100203.31;;;9.19;100.00
30724;BME280;17473;52.286;20.930;2023-04-07T08:31:29;100198.38;;;9.29;100.00
30724;BME280;17473;52.286;20.930;2023-04-07T08:33:56;100206.41;;;9.32;100.00
30724;BME280;17473;52.286;20.930;2023-04-07T08:36:25;100203.59;;;9.27;100.00
30724;BME280;17473;52.286;20.930;2023-04-07T08:38:53;100193.00;;;9.26;100.00
30724;BME280;17473;52.286;20.930;2023-04-07T08:41:37;100205.78;;;9.39;100.00
30724;BME280;17473;52.286;20.930;2023-04-07T08:44:06;100202.31;;;9.40;100.00
30724;BME280;17473;52.286;20.930;2023-04-07T08:46:34;100198.00;;;9.68;100.00
30724;BME280;17473;52.286;20.930;2023-04-07T08:49:03;100201.19;;;9.85;100.00
30724;BME280;17473;52.286;20.930;2023-04-07T08:51:33;100189.50;;;10.04;100.00
30724;BME280;17473;52.286;20.930;2023-04-07T08:54:09;100186.03;;;10.05;100.00
30724;BME280;17473;52.286;20.930;2023-04-07T08:56:41;100189.34;;;10.25;100.00
30724;BME280;17473;52.286;20.930;2023-04-07T08:59:13;100188.34;;;10.22;100.00
30724;BME280;17473;52.286;20.930;2023-04-07T09:01:40;100195.53;;;10.27;100.00
30724;BME280;17473;52.286;20.930;2023-04-07T09:04:09;100200.03;;;10.30;100.00
30724;BME280;17473;52.286;20.930;2023-04-07T09:06:37;100192.50;;;10.41;100.00
30724;BME280;17473;52.286;20.930;2023-04-07T09:09:04;100198.44;;;10.35;100.00
30724;BME280;17473;52.286;20.930;2023-04-07T09:11:37;100193.25;;;10.11;100.00
30724;BME280;17473;52.286;20.930;2023-04-07T09:14:04;100192.13;;;10.30;100.00
30724;BME280;17473;52.286;20.930;2023-04-07T09:16:32;100196.84;;;10.40;100.00
30724;BME280;17473;52.286;20.930;2023-04-07T09:18:59;100192.38;;;10.38;100.00
30724;BME280;17473;52.286;20.930;2023-04-07T09:21:26;100187.59;;;10.26;100.00
30724;BME280;17473;52.286;20.930;2023-04-07T09:24:21;100182.47;;;10.32;100.00
30724;BME280;17473;52.286;20.930;2023-04-07T09:26:48;100185.66;;;10.47;100.00
30724;BME280;17473;52.286;20.930;2023-04-07T09:29:20;100186.53;;;10.48;100.00
30724;BME280;17473;52.286;20.930;2023-04-07T09:31:49;100179.63;;;10.24;100.00
30724;BME280;17473;52.286;20.930;2023-04-07T09:34:33;100185.66;;;10.47;100.00
30724;BME280;17473;52.286;20.930;2023-04-07T09:37:01;100183.94;;;10.49;100.00
30724;BME280;17473;52.286;20.930;2023-04-07T09:39:29;100187.16;;;10.39;100.00
30724;BME280;17473;52.286;20.930;2023-04-07T09:41:56;100183.88;;;10.46;100.00
30724;BME280;17473;52.286;20.930;2023-04-07T09:44:24;100185.72;;;10.22;100.00
30724;BME280;17473;52.286;20.930;2023-04-07T09:46:57;100186.13;;;10.36;100.00
30724;BME280;17473;52.286;20.930;2023-04-07T09:49:25;100188.91;;;10.39;100.00
30724;BME280;17473;52.286;20.930;2023-04-07T09:51:59;100188.69;;;10.32;100.00
30724;BME280;17473;52.286;20.930;2023-04-07T09:54:36;100170.59;;;10.17;100.00
30724;BME280;17473;52.286;20.930;2023-04-07T09:57:06;100183.16;;;10.25;100.00
30724;BME280;17473;52.286;20.930;2023-04-07T09:59:38;100189.97;;;10.44;100.00
30724;BME280;17473;52.286;20.930;2023-04-07T10:02:07;100184.88;;;10.52;100.00
30724;BME280;17473;52.286;20.930;2023-04-07T10:04:34;100183.88;;;10.75;100.00
30724;BME280;17473;52.286;20.930;2023-04-07T10:07:04;100174.91;;;10.70;100.00
30724;BME280;17473;52.286;20.930;2023-04-07T10:09:32;100189.94;;;10.73;100.00
30724;BME280;17473;52.286;20.930;2023-04-07T10:11:59;100192.50;;;11.00;100.00
30724;BME280;17473;52.286;20.930;2023-04-07T10:14:35;100194.56;;;11.10;100.00
30724;BME280;17473;52.286;20.930;2023-04-07T10:17:06;100191.47;;;10.95;100.00
30724;BME280;17473;52.286;20.930;2023-04-07T10:19:35;100192.16;;;10.89;100.00
30724;BME280;17473;52.286;20.930;2023-04-07T10:22:04;100193.22;;;10.94;100.00
30724;BME280;17473;52.286;20.930;2023-04-07T10:25:10;100191.53;;;10.96;100.00
30724;BME280;17473;52.286;20.930;2023-04-07T10:27:52;100192.97;;;10.87;100.00
30724;BME280;17473;52.286;20.930;2023-04-07T10:30:30;100193.03;;;10.88;100.00
30724;BME280;17473;52.286;20.930;2023-04-07T10:32:57;100200.50;;;11.03;100.00
30724;BME280;17473;52.286;20.930;2023-04-07T10:35:25;100203.25;;;11.06;100.00
30724;BME280;17473;52.286;20.930;2023-04-07T10:40:40;100201.41;;;11.04;100.00
30724;BME280;17473;52.286;20.930;2023-04-07T10:43:07;100206.66;;;11.02;100.00
30724;BME280;17473;52.286;20.930;2023-04-07T10:48:22;100204.34;;;11.15;100.00
30724;BME280;17473;52.286;20.930;2023-04-07T10:53:31;100212.13;;;11.40;100.00
30724;BME280;17473;52.286;20.930;2023-04-07T10:55:58;100213.53;;;11.27;100.00
30724;BME280;17473;52.286;20.930;2023-04-07T10:58:29;100204.38;;;11.16;100.00
30724;BME280;17473;52.286;20.930;2023-04-07T11:03:35;100212.31;;;11.16;100.00
30724;BME280;17473;52.286;20.930;2023-04-07T11:06:08;100215.59;;;11.39;100.00
30724;BME280;17473;52.286;20.930;2023-04-07T11:08:44;100204.66;;;11.25;100.00
30724;BME280;17473;52.286;20.930;2023-04-07T11:11:36;100212.78;;;11.32;100.00
30724;BME280;17473;52.286;20.930;2023-04-07T11:14:04;100212.31;;;11.47;100.00
30724;BME280;17473;52.286;20.930;2023-04-07T11:16:38;100214.44;;;11.62;100.00
30724;BME280;17473;52.286;20.930;2023-04-07T11:19:05;100216.22;;;11.61;100.00
30724;BME280;17473;52.286;20.930;2023-04-07T11:21:32;100215.72;;;11.76;100.00
30724;BME280;17473;52.286;20.930;2023-04-07T11:23:59;100213.22;;;11.82;100.00
30724;BME280;17473;52.286;20.930;2023-04-07T11:26:27;100224.56;;;12.10;100.00
30724;BME280;17473;52.286;20.930;2023-04-07T11:28:55;100221.91;;;12.10;100.00
30724;BME280;17473;52.286;20.930;2023-04-07T11:31:26;100216.34;;;11.99;100.00
30724;BME280;17473;52.286;20.930;2023-04-07T11:34:03;100221.16;;;11.82;100.00
30724;BME280;17473;52.286;20.930;2023-04-07T11:36:36;100217.66;;;11.83;100.00
30724;BME280;17473;52.286;20.930;2023-04-07T11:39:03;100215.44;;;11.65;100.00
30724;BME280;17473;52.286;20.930;2023-04-07T11:41:32;100215.25;;;11.57;100.00
30724;BME280;17473;52.286;20.930;2023-04-07T11:44:10;100207.41;;;11.61;100.00
30724;BME280;17473;52.286;20.930;2023-04-07T11:47:00;100217.78;;;11.54;100.00
30724;BME280;17473;52.286;20.930;2023-04-07T11:49:29;100207.63;;;11.36;100.00
30724;BME280;17473;52.286;20.930;2023-04-07T11:52:02;100220.56;;;11.59;100.00
30724;BME280;17473;52.286;20.930;2023-04-07T11:54:44;100213.16;;;11.46;100.00
30724;BME280;17473;52.286;20.930;2023-04-07T11:57:13;100208.38;;;11.32;100.00
30724;BME280;17473;52.286;20.930;2023-04-07T11:59:40;100225.44;;;11.43;100.00
30724;BME280;17473;52.286;20.930;2023-04-07T12:02:08;100220.03;;;11.40;100.00
30724;BME280;17473;52.286;20.930;2023-04-07T12:04:36;100212.78;;;11.32;100.00
30724;BME280;17473;52.286;20.930;2023-04-07T12:07:10;100221.00;;;11.10;100.00
30724;BME280;17473;52.286;20.930;2023-04-07T12:09:38;100218.47;;;11.15;100.00
30724;BME280;17473;52.286;20.930;2023-04-07T12:12:06;100226.34;;;11.14;100.00
30724;BME280;17473;52.286;20.930;2023-04-07T12:14:35;100228.13;;;11.15;100.00
30724;BME280;17473;52.286;20.930;2023-04-07T12:17:02;100238.56;;;11.10;100.00
30724;BME280;17473;52.286;20.930;2023-04-07T12:19:31;100231.47;;;11.07;100.00
30724;BME280;17473;52.286;20.930;2023-04-07T12:22:05;100237.47;;;11.03;100.00
30724;BME280;17473;52.286;20.930;2023-04-07T12:24:32;100243.00;;;11.11;100.00
30724;BME280;17473;52.286;20.930;2023-04-07T12:26:59;100233.53;;;11.18;100.00
30724;BME280;17473;52.286;20.930;2023-04-07T12:29:26;100244.44;;;11.30;100.00
30724;BME280;17473;52.286;20.930;2023-04-07T12:31:53;100235.31;;;11.19;100.00
30724;BME280;17473;52.286;20.930;2023-04-07T12:34:21;100231.72;;;11.17;100.00
30724;BME280;17473;52.286;20.930;2023-04-07T12:36:48;100234.78;;;11.31;100.00
30724;BME280;17473;52.286;20.930;2023-04-07T12:39:15;100238.75;;;11.47;100.00
30724;BME280;17473;52.286;20.930;2023-04-07T12:41:42;100237.66;;;11.40;100.00
30724;BME280;17473;52.286;20.930;2023-04-07T12:44:11;100239.63;;;11.47;100.00
30724;BME280;17473;52.286;20.930;2023-04-07T12:46:39;100242.66;;;11.61;100.00
30724;BME280;17473;52.286;20.930;2023-04-07T12:49:06;100248.28;;;11.73;100.00
30724;BME280;17473;52.286;20.930;2023-04-07T12:51:33;100242.31;;;11.81;100.00
30724;BME280;17473;52.286;20.930;2023-04-07T12:54:00;100242.00;;;11.70;100.00
30724;BME280;17473;52.286;20.930;2023-04-07T12:56:28;100245.19;;;11.56;100.00
30724;BME280;17473;52.286;20.930;2023-04-07T12:58:55;100240.94;;;11.31;100.00
30724;BME280;17473;52.286;20.930;2023-04-07T13:01:22;100243.09;;;11.45;100.00
30724;BME280;17473;52.286;20.930;2023-04-07T13:03:49;100249.66;;;11.27;100.00
30724;BME280;17473;52.286;20.930;2023-04-07T13:06:17;100261.31;;;11.34;100.00